sensor_id;sensor_type;location;lat;lon;timestamp;temperature;humidity
14769;DHT22;7476;49.404;11.152;2023-12-20T00:01:10;5.40;99.90
14769;DHT22;7476;49.404;11.152;2023-12-20T00:03:36;5.40;99.90
14769;DHT22;7476;49.404;11.152;2023-12-20T00:06:03;5.50;99.90
14769;DHT22;7476;49.404;11.152;2023-12-20T00:08:30;5.40;99.90
14769;DHT22;7476;49.404;11.152;2023-12-20T00:10:56;5.40;99.90
14769;DHT22;7476;49.404;11.152;2023-12-20T00:13:24;5.40;99.90
14769;DHT22;7476;49.404;11.152;2023-12-20T00:15:50;5.50;99.90
14769;DHT22;7476;49.404;11.152;2023-12-20T00:18:17;5.50;99.90
14769;DHT22;7476;49.404;11.152;2023-12-20T00:20:44;5.60;99.90
14769;DHT22;7476;49.404;11.152;2023-12-20T00:23:10;5.60;99.90
14769;DHT22;7476;49.404;11.152;2023-12-20T00:25:37;5.60;99.90
14769;DHT22;7476;49.404;11.152;2023-12-20T00:28:04;5.60;99.90
14769;DHT22;7476;49.404;11.152;2023-12-20T00:30:32;5.60;99.90
14769;DHT22;7476;49.404;11.152;2023-12-20T00:32:59;5.60;99.90
14769;DHT22;7476;49.404;11.152;2023-12-20T00:35:25;5.60;99.90
14769;DHT22;7476;49.404;11.152;2023-12-20T00:37:52;5.70;99.90
14769;DHT22;7476;49.404;11.152;2023-12-20T00:40:18;5.60;99.90
14769;DHT22;7476;49.404;11.152;2023-12-20T00:42:46;5.60;99.90
14769;DHT22;7476;49.404;11.152;2023-12-20T00:45:12;5.60;99.90
14769;DHT22;7476;49.404;11.152;2023-12-20T00:47:41;5.60;99.90
14769;DHT22;7476;49.404;11.152;2023-12-20T00:50:08;5.60;99.90
14769;DHT22;7476;49.404;11.152;2023-12-20T00:52:35;5.60;99.90
14769;DHT22;7476;49.404;11.152;2023-12-20T00:55:02;5.60;99.90
14769;DHT22;7476;49.404;11.152;2023-12-20T00:57:29;5.50;99.90
14769;DHT22;7476;49.404;11.152;2023-12-20T00:59:56;5.50;99.90
14769;DHT22;7476;49.404;11.152;2023-12-20T01:02:23;5.60;99.90
14769;DHT22;7476;49.404;11.152;2023-12-20T01:04:51;5.60;99.90
14769;DHT22;7476;49.404;11.152;2023-12-20T01:07:17;5.60;99.90
14769;DHT22;7476;49.404;11.152;2023-12-20T01:09:44;5.60;99.90
14769;DHT22;7476;49.404;11.152;2023-12-20T01:12:11;5.60;99.90
14769;DHT22;7476;49.404;11.152;2023-12-20T01:14:37;5.60;99.90
14769;DHT22;7476;49.404;11.152;2023-12-20T01:17:04;5.70;99.90
14769;DHT22;7476;49.404;11.152;2023-12-20T01:19:31;5.70;99.90
14769;DHT22;7476;49.404;11.152;2023-12-20T01:21:59;5.70;99.90
14769;DHT22;7476;49.404;11.152;2023-12-20T01:24:26;5.70;99.90
14769;DHT22;7476;49.404;11.152;2023-12-20T01:26:52;5.70;99.90
14769;DHT22;7476;49.404;11.152;2023-12-20T01:29:19;5.70;99.90
14769;DHT22;7476;49.404;11.152;2023-12-20T01:31:45;5.70;99.90
14769;DHT22;7476;49.404;11.152;2023-12-20T01:34:12;5.70;99.90
14769;DHT22;7476;49.404;11.152;2023-12-20T01:36:39;5.70;99.90
14769;DHT22;7476;49.404;11.152;2023-12-20T01:39:06;5.70;99.90
14769;DHT22;7476;49.404;11.152;2023-12-20T01:41:33;5.70;99.90
14769;DHT22;7476;49.404;11.152;2023-12-20T01:44:00;5.70;99.90
14769;DHT22;7476;49.404;11.152;2023-12-20T01:46:26;5.70;99.90
14769;DHT22;7476;49.404;11.152;2023-12-20T01:48:53;5.70;99.90
14769;DHT22;7476;49.404;11.152;2023-12-20T01:51:21;5.70;99.90
14769;DHT22;7476;49.404;11.152;2023-12-20T01:53:48;5.70;99.90
14769;DHT22;7476;49.404;11.152;2023-12-20T01:56:16;5.70;99.90
14769;DHT22;7476;49.404;11.152;2023-12-20T01:58:45;5.60;99.90
14769;DHT22;7476;49.404;11.152;2023-12-20T02:01:12;5.60;99.90
14769;DHT22;7476;49.404;11.152;2023-12-20T02:03:40;5.60;99.90
14769;DHT22;7476;49.404;11.152;2023-12-20T02:06:07;5.70;99.90
14769;DHT22;7476;49.404;11.152;2023-12-20T02:08:34;5.70;99.90
14769;DHT22;7476;49.404;11.152;2023-12-20T02:11:01;5.60;99.90
14769;DHT22;7476;49.404;11.152;2023-12-20T02:13:30;5.60;99.90
14769;DHT22;7476;49.404;11.152;2023-12-20T02:15:57;5.60;99.90
14769;DHT22;7476;49.404;11.152;2023-12-20T02:18:23;5.60;99.90
14769;DHT22;7476;49.404;11.152;2023-12-20T02:20:50;5.60;99.90
14769;DHT22;7476;49.404;11.152;2023-12-20T02:23:18;5.60;99.90
14769;DHT22;7476;49.404;11.152;2023-12-20T02:25:45;5.60;99.90
14769;DHT22;7476;49.404;11.152;2023-12-20T02:28:11;5.50;99.90
14769;DHT22;7476;49.404;11.152;2023-12-20T02:30:38;5.50;99.90
14769;DHT22;7476;49.404;11.152;2023-12-20T02:33:08;5.50;99.90
14769;DHT22;7476;49.404;11.152;2023-12-20T02:35:36;5.50;99.90
14769;DHT22;7476;49.404;11.152;2023-12-20T02:38:03;5.40;99.90
14769;DHT22;7476;49.404;11.152;2023-12-20T02:40:31;5.40;99.90
14769;DHT22;7476;49.404;11.152;2023-12-20T02:42:58;5.40;99.90
14769;DHT22;7476;49.404;11.152;2023-12-20T02:45:26;5.30;99.90
14769;DHT22;7476;49.404;11.152;2023-12-20T02:47:52;5.30;99.90
14769;DHT22;7476;49.404;11.152;2023-12-20T02:50:19;5.20;99.90
14769;DHT22;7476;49.404;11.152;2023-12-20T02:52:46;5.10;99.90
14769;DHT22;7476;49.404;11.152;2023-12-20T02:55:12;5.10;99.90
14769;DHT22;7476;49.404;11.152;2023-12-20T02:57:40;5.00;99.90
14769;DHT22;7476;49.404;11.152;2023-12-20T03:00:08;5.00;99.90
14769;DHT22;7476;49.404;11.152;2023-12-20T03:02:36;5.00;99.90
14769;DHT22;7476;49.404;11.152;2023-12-20T03:05:03;5.00;99.90
14769;DHT22;7476;49.404;11.152;2023-12-20T03:07:30;4.90;99.90
14769;DHT22;7476;49.404;11.152;2023-12-20T03:09:56;4.90;99.90
14769;DHT22;7476;49.404;11.152;2023-12-20T03:12:23;4.80;99.90
14769;DHT22;7476;49.404;11.152;2023-12-20T03:14:51;4.80;99.90
14769;DHT22;7476;49.404;11.152;2023-12-20T03:17:17;4.80;99.90
14769;DHT22;7476;49.404;11.152;2023-12-20T03:19:44;4.80;99.90
14769;DHT22;7476;49.404;11.152;2023-12-20T03:22:10;4.70;99.90
14769;DHT22;7476;49.404;11.152;2023-12-20T03:24:37;4.70;99.90
14769;DHT22;7476;49.404;11.152;2023-12-20T03:27:04;4.70;99.90
14769;DHT22;7476;49.404;11.152;2023-12-20T03:29:30;4.60;99.90
14769;DHT22;7476;49.404;11.152;2023-12-20T03:31:58;4.70;99.90
14769;DHT22;7476;49.404;11.152;2023-12-20T03:34:26;4.60;99.90
14769;DHT22;7476;49.404;11.152;2023-12-20T03:36:54;4.60;99.90
14769;DHT22;7476;49.404;11.152;2023-12-20T03:39:21;4.60;99.90
14769;DHT22;7476;49.404;11.152;2023-12-20T03:41:47;4.60;99.90
14769;DHT22;7476;49.404;11.152;2023-12-20T03:44:14;4.50;99.90
14769;DHT22;7476;49.404;11.152;2023-12-20T03:46:41;4.60;99.90
14769;DHT22;7476;49.404;11.152;2023-12-20T03:49:09;4.50;99.90
14769;DHT22;7476;49.404;11.152;2023-12-20T03:51:35;4.50;99.90
14769;DHT22;7476;49.404;11.152;2023-12-20T03:54:02;4.50;99.90
14769;DHT22;7476;49.404;11.152;2023-12-20T03:56:29;4.50;99.90
14769;DHT22;7476;49.404;11.152;2023-12-20T03:58:55;4.50;99.90
14769;DHT22;7476;49.404;11.152;2023-12-20T04:01:22;4.50;99.90
14769;DHT22;7476;49.404;11.152;2023-12-20T04:03:49;4.50;99.90
14769;DHT22;7476;49.404;11.152;2023-12-20T04:06:18;4.50;99.90
14769;DHT22;7476;49.404;11.152;2023-12-20T04:08:44;4.50;99.90
14769;DHT22;7476;49.404;11.152;2023-12-20T04:11:11;4.50;99.90
14769;DHT22;7476;49.404;11.152;2023-12-20T04:13:37;4.50;99.90
14769;DHT22;7476;49.404;11.152;2023-12-20T04:16:04;4.50;99.90
14769;DHT22;7476;49.404;11.152;2023-12-20T04:18:31;4.50;99.90
14769;DHT22;7476;49.404;11.152;2023-12-20T04:20:58;4.50;99.90
14769;DHT22;7476;49.404;11.152;2023-12-20T04:23:26;4.50;99.90
14769;DHT22;7476;49.404;11.152;2023-12-20T04:25:54;4.50;99.90
14769;DHT22;7476;49.404;11.152;2023-12-20T04:28:20;4.50;99.90
14769;DHT22;7476;49.404;11.152;2023-12-20T04:30:47;4.40;99.90
14769;DHT22;7476;49.404;11.152;2023-12-20T04:33:14;4.50;99.90
14769;DHT22;7476;49.404;11.152;2023-12-20T04:35:40;4.50;99.90
14769;DHT22;7476;49.404;11.152;2023-12-20T04:38:08;4.50;99.90
14769;DHT22;7476;49.404;11.152;2023-12-20T04:40:36;4.40;99.90
14769;DHT22;7476;49.404;11.152;2023-12-20T04:43:03;4.40;99.90
14769;DHT22;7476;49.404;11.152;2023-12-20T04:45:29;4.40;99.90
14769;DHT22;7476;49.404;11.152;2023-12-20T04:47:56;4.50;99.90
14769;DHT22;7476;49.404;11.152;2023-12-20T04:50:23;4.40;99.90
14769;DHT22;7476;49.404;11.152;2023-12-20T04:52:49;4.40;99.90
14769;DHT22;7476;49.404;11.152;2023-12-20T04:55:16;4.40;99.90
14769;DHT22;7476;49.404;11.152;2023-12-20T04:57:44;4.40;99.90
14769;DHT22;7476;49.404;11.152;2023-12-20T05:00:12;4.50;99.90
14769;DHT22;7476;49.404;11.152;2023-12-20T05:02:40;4.40;99.90
14769;DHT22;7476;49.404;11.152;2023-12-20T05:05:08;4.40;99.90
14769;DHT22;7476;49.404;11.152;2023-12-20T05:07:34;4.40;99.90
14769;DHT22;7476;49.404;11.152;2023-12-20T05:10:01;4.40;99.90
14769;DHT22;7476;49.404;11.152;2023-12-20T05:12:29;4.40;99.90
14769;DHT22;7476;49.404;11.152;2023-12-20T05:14:58;4.40;99.90
14769;DHT22;7476;49.404;11.152;2023-12-20T05:17:25;4.40;99.90
14769;DHT22;7476;49.404;11.152;2023-12-20T05:19:51;4.40;99.90
14769;DHT22;7476;49.404;11.152;2023-12-20T05:22:19;4.40;99.90
14769;DHT22;7476;49.404;11.152;2023-12-20T05:24:46;4.40;99.90
14769;DHT22;7476;49.404;11.152;2023-12-20T05:27:12;4.40;99.90
14769;DHT22;7476;49.404;11.152;2023-12-20T05:29:39;4.40;99.90
14769;DHT22;7476;49.404;11.152;2023-12-20T05:32:07;4.40;99.90
14769;DHT22;7476;49.404;11.152;2023-12-20T05:34:33;4.40;99.90
14769;DHT22;7476;49.404;11.152;2023-12-20T05:37:00;4.40;99.90
14769;DHT22;7476;49.404;11.152;2023-12-20T05:39:28;4.40;99.90
14769;DHT22;7476;49.404;11.152;2023-12-20T05:41:56;4.40;99.90
14769;DHT22;7476;49.404;11.152;2023-12-20T05:44:23;4.40;99.90
14769;DHT22;7476;49.404;11.152;2023-12-20T05:46:49;4.30;99.90
14769;DHT22;7476;49.404;11.152;2023-12-20T05:49:17;4.30;99.90
14769;DHT22;7476;49.404;11.152;2023-12-20T05:51:44;4.30;99.90
14769;DHT22;7476;49.404;11.152;2023-12-20T05:54:11;4.30;99.90
14769;DHT22;7476;49.404;11.152;2023-12-20T05:56:37;4.30;99.90
14769;DHT22;7476;49.404;11.152;2023-12-20T05:59:04;4.30;99.90
14769;DHT22;7476;49.404;11.152;2023-12-20T06:01:31;4.30;99.90
14769;DHT22;7476;49.404;11.152;2023-12-20T06:03:57;4.30;99.90
14769;DHT22;7476;49.404;11.152;2023-12-20T06:06:25;4.30;99.90
14769;DHT22;7476;49.404;11.152;2023-12-20T06:08:52;4.30;99.90
14769;DHT22;7476;49.404;11.152;2023-12-20T06:11:18;4.30;99.90
14769;DHT22;7476;49.404;11.152;2023-12-20T06:13:45;4.30;99.90
14769;DHT22;7476;49.404;11.152;2023-12-20T06:16:12;4.30;99.90
14769;DHT22;7476;49.404;11.152;2023-12-20T06:18:39;4.30;99.90
14769;DHT22;7476;49.404;11.152;2023-12-20T06:21:06;4.30;99.90
14769;DHT22;7476;49.404;11.152;2023-12-20T06:23:35;4.30;99.90
14769;DHT22;7476;49.404;11.152;2023-12-20T06:26:01;4.30;99.90
14769;DHT22;7476;49.404;11.152;2023-12-20T06:28:28;4.30;99.90
14769;DHT22;7476;49.404;11.152;2023-12-20T06:30:54;4.30;99.90
14769;DHT22;7476;49.404;11.152;2023-12-20T06:33:22;4.30;99.90
14769;DHT22;7476;49.404;11.152;2023-12-20T06:35:49;4.30;99.90
14769;DHT22;7476;49.404;11.152;2023-12-20T06:38:17;4.30;99.90
14769;DHT22;7476;49.404;11.152;2023-12-20T06:40:45;4.30;99.90
14769;DHT22;7476;49.404;11.152;2023-12-20T06:43:12;4.30;99.90
14769;DHT22;7476;49.404;11.152;2023-12-20T06:45:39;4.30;99.90
14769;DHT22;7476;49.404;11.152;2023-12-20T06:48:06;4.30;99.90
14769;DHT22;7476;49.404;11.152;2023-12-20T06:50:33;4.30;99.90
14769;DHT22;7476;49.404;11.152;2023-12-20T06:52:59;4.40;99.90
14769;DHT22;7476;49.404;11.152;2023-12-20T06:55:32;4.30;99.90
14769;DHT22;7476;49.404;11.152;2023-12-20T06:58:00;4.40;99.90
14769;DHT22;7476;49.404;11.152;2023-12-20T07:00:27;4.40;99.90
14769;DHT22;7476;49.404;11.152;2023-12-20T07:02:54;4.40;99.90
14769;DHT22;7476;49.404;11.152;2023-12-20T07:05:21;4.40;99.90
14769;DHT22;7476;49.404;11.152;2023-12-20T07:07:48;4.40;99.90
14769;DHT22;7476;49.404;11.152;2023-12-20T07:10:14;4.40;99.90
14769;DHT22;7476;49.404;11.152;2023-12-20T07:12:41;4.50;99.90
14769;DHT22;7476;49.404;11.152;2023-12-20T07:15:09;4.40;99.90
14769;DHT22;7476;49.404;11.152;2023-12-20T07:17:36;4.50;99.90
14769;DHT22;7476;49.404;11.152;2023-12-20T07:20:04;4.50;99.90
14769;DHT22;7476;49.404;11.152;2023-12-20T07:22:32;4.50;99.90
14769;DHT22;7476;49.404;11.152;2023-12-20T07:24:59;4.50;99.90
14769;DHT22;7476;49.404;11.152;2023-12-20T07:27:26;4.50;99.90
14769;DHT22;7476;49.404;11.152;2023-12-20T07:29:53;4.50;99.90
14769;DHT22;7476;49.404;11.152;2023-12-20T07:32:21;4.60;99.90
14769;DHT22;7476;49.404;11.152;2023-12-20T07:34:47;4.60;99.90
14769;DHT22;7476;49.404;11.152;2023-12-20T07:37:14;4.60;99.90
14769;DHT22;7476;49.404;11.152;2023-12-20T07:39:41;4.60;99.90
14769;DHT22;7476;49.404;11.152;2023-12-20T07:42:08;4.60;99.90
14769;DHT22;7476;49.404;11.152;2023-12-20T07:44:35;4.60;99.90
14769;DHT22;7476;49.404;11.152;2023-12-20T07:47:02;4.70;99.90
14769;DHT22;7476;49.404;11.152;2023-12-20T07:49:30;4.70;99.90
14769;DHT22;7476;49.404;11.152;2023-12-20T07:51:57;4.70;99.90
14769;DHT22;7476;49.404;11.152;2023-12-20T07:54:23;4.70;99.90
14769;DHT22;7476;49.404;11.152;2023-12-20T07:56:50;4.70;99.90
14769;DHT22;7476;49.404;11.152;2023-12-20T07:59:17;4.70;99.90
14769;DHT22;7476;49.404;11.152;2023-12-20T08:01:43;4.70;99.90
14769;DHT22;7476;49.404;11.152;2023-12-20T08:04:10;4.80;99.90
14769;DHT22;7476;49.404;11.152;2023-12-20T08:06:38;4.80;99.90
14769;DHT22;7476;49.404;11.152;2023-12-20T08:09:05;4.80;99.90
14769;DHT22;7476;49.404;11.152;2023-12-20T08:11:31;4.80;99.90
14769;DHT22;7476;49.404;11.152;2023-12-20T08:13:58;4.80;99.90
14769;DHT22;7476;49.404;11.152;2023-12-20T08:16:25;4.80;99.90
14769;DHT22;7476;49.404;11.152;2023-12-20T08:18:52;4.90;99.90
14769;DHT22;7476;49.404;11.152;2023-12-20T08:21:19;4.90;99.90
14769;DHT22;7476;49.404;11.152;2023-12-20T08:23:49;4.90;99.90
14769;DHT22;7476;49.404;11.152;2023-12-20T08:26:18;4.90;99.90
14769;DHT22;7476;49.404;11.152;2023-12-20T08:28:46;4.90;99.90
14769;DHT22;7476;49.404;11.152;2023-12-20T08:31:14;5.00;99.90
14769;DHT22;7476;49.404;11.152;2023-12-20T08:33:41;5.00;99.90
14769;DHT22;7476;49.404;11.152;2023-12-20T08:36:08;5.00;99.90
14769;DHT22;7476;49.404;11.152;2023-12-20T08:38:35;5.00;99.90
14769;DHT22;7476;49.404;11.152;2023-12-20T08:41:03;5.00;99.90
14769;DHT22;7476;49.404;11.152;2023-12-20T08:43:31;5.00;99.90
14769;DHT22;7476;49.404;11.152;2023-12-20T08:45:57;5.10;99.90
14769;DHT22;7476;49.404;11.152;2023-12-20T08:48:23;5.20;99.90
14769;DHT22;7476;49.404;11.152;2023-12-20T08:50:50;5.20;99.90
14769;DHT22;7476;49.404;11.152;2023-12-20T08:53:17;5.30;99.90
14769;DHT22;7476;49.404;11.152;2023-12-20T08:55:44;5.30;99.90
14769;DHT22;7476;49.404;11.152;2023-12-20T08:58:12;5.30;99.90
14769;DHT22;7476;49.404;11.152;2023-12-20T09:00:39;5.30;99.90
14769;DHT22;7476;49.404;11.152;2023-12-20T09:03:06;5.30;99.90
14769;DHT22;7476;49.404;11.152;2023-12-20T09:05:32;5.20;99.90
14769;DHT22;7476;49.404;11.152;2023-12-20T09:07:59;5.20;99.90
14769;DHT22;7476;49.404;11.152;2023-12-20T09:10:26;5.20;99.90
14769;DHT22;7476;49.404;11.152;2023-12-20T09:12:53;5.20;99.90
14769;DHT22;7476;49.404;11.152;2023-12-20T09:15:23;5.30;99.90
14769;DHT22;7476;49.404;11.152;2023-12-20T09:17:49;5.30;99.90
14769;DHT22;7476;49.404;11.152;2023-12-20T09:20:16;5.20;99.90
14769;DHT22;7476;49.404;11.152;2023-12-20T09:22:43;5.20;99.90
14769;DHT22;7476;49.404;11.152;2023-12-20T09:25:10;5.20;99.90
14769;DHT22;7476;49.404;11.152;2023-12-20T09:27:38;5.20;99.90
14769;DHT22;7476;49.404;11.152;2023-12-20T09:30:05;5.20;99.90
14769;DHT22;7476;49.404;11.152;2023-12-20T09:32:34;5.00;99.90
14769;DHT22;7476;49.404;11.152;2023-12-20T09:35:00;4.90;99.90
14769;DHT22;7476;49.404;11.152;2023-12-20T09:37:27;5.00;99.90
14769;DHT22;7476;49.404;11.152;2023-12-20T09:39:54;5.10;99.90
14769;DHT22;7476;49.404;11.152;2023-12-20T09:42:29;5.30;99.90
14769;DHT22;7476;49.404;11.152;2023-12-20T09:44:57;5.30;99.90
14769;DHT22;7476;49.404;11.152;2023-12-20T09:47:27;5.40;99.90
14769;DHT22;7476;49.404;11.152;2023-12-20T09:49:55;5.40;99.90
14769;DHT22;7476;49.404;11.152;2023-12-20T09:52:24;5.50;99.90
14769;DHT22;7476;49.404;11.152;2023-12-20T09:54:52;5.60;99.90
14769;DHT22;7476;49.404;11.152;2023-12-20T09:57:20;5.60;99.90
14769;DHT22;7476;49.404;11.152;2023-12-20T09:59:47;5.60;96.50
14769;DHT22;7476;49.404;11.152;2023-12-20T10:02:14;5.70;40.40
14769;DHT22;7476;49.404;11.152;2023-12-20T10:04:46;5.90;39.90
14769;DHT22;7476;49.404;11.152;2023-12-20T10:07:15;6.20;10.70
14769;DHT22;7476;49.404;11.152;2023-12-20T10:09:42;6.20;1.00
14769;DHT22;7476;49.404;11.152;2023-12-20T10:12:09;6.20;1.00
14769;DHT22;7476;49.404;11.152;2023-12-20T10:14:36;6.10;1.00
14769;DHT22;7476;49.404;11.152;2023-12-20T10:17:03;6.10;1.00
14769;DHT22;7476;49.404;11.152;2023-12-20T10:19:30;6.10;1.00
14769;DHT22;7476;49.404;11.152;2023-12-20T10:21:57;6.20;1.00
14769;DHT22;7476;49.404;11.152;2023-12-20T10:24:28;6.10;1.00
14769;DHT22;7476;49.404;11.152;2023-12-20T10:27:02;6.20;1.00
14769;DHT22;7476;49.404;11.152;2023-12-20T10:29:32;6.20;1.00
14769;DHT22;7476;49.404;11.152;2023-12-20T10:31:59;6.20;1.00
14769;DHT22;7476;49.404;11.152;2023-12-20T10:34:25;6.30;1.00
14769;DHT22;7476;49.404;11.152;2023-12-20T10:36:52;6.40;1.00
14769;DHT22;7476;49.404;11.152;2023-12-20T10:39:20;6.50;1.00
14769;DHT22;7476;49.404;11.152;2023-12-20T10:41:49;6.60;1.00
14769;DHT22;7476;49.404;11.152;2023-12-20T10:44:16;6.70;1.00
14769;DHT22;7476;49.404;11.152;2023-12-20T10:46:43;6.80;1.00
14769;DHT22;7476;49.404;11.152;2023-12-20T10:49:17;6.70;1.00
14769;DHT22;7476;49.404;11.152;2023-12-20T10:51:46;6.70;1.00
14769;DHT22;7476;49.404;11.152;2023-12-20T10:54:14;6.80;1.00
14769;DHT22;7476;49.404;11.152;2023-12-20T10:56:41;6.80;1.00
14769;DHT22;7476;49.404;11.152;2023-12-20T10:59:11;6.90;1.00
14769;DHT22;7476;49.404;11.152;2023-12-20T11:01:38;6.90;1.00
14769;DHT22;7476;49.404;11.152;2023-12-20T11:04:10;6.90;1.00
14769;DHT22;7476;49.404;11.152;2023-12-20T11:06:45;6.80;1.00
14769;DHT22;7476;49.404;11.152;2023-12-20T11:09:17;6.60;1.00
14769;DHT22;7476;49.404;11.152;2023-12-20T11:11:56;6.40;1.00
14769;DHT22;7476;49.404;11.152;2023-12-20T11:14:31;6.30;1.00
14769;DHT22;7476;49.404;11.152;2023-12-20T11:17:06;6.30;1.00
14769;DHT22;7476;49.404;11.152;2023-12-20T11:19:35;6.30;1.00
14769;DHT22;7476;49.404;11.152;2023-12-20T11:22:03;6.30;1.00
14769;DHT22;7476;49.404;11.152;2023-12-20T11:24:31;6.30;1.00
14769;DHT22;7476;49.404;11.152;2023-12-20T11:26:59;6.30;1.00
14769;DHT22;7476;49.404;11.152;2023-12-20T11:29:31;6.30;1.00
14769;DHT22;7476;49.404;11.152;2023-12-20T11:32:00;6.10;1.00
14769;DHT22;7476;49.404;11.152;2023-12-20T11:34:27;5.90;1.00
14769;DHT22;7476;49.404;11.152;2023-12-20T11:36:58;5.80;1.00
14769;DHT22;7476;49.404;11.152;2023-12-20T11:39:26;5.70;1.00
14769;DHT22;7476;49.404;11.152;2023-12-20T11:41:54;5.70;1.00
14769;DHT22;7476;49.404;11.152;2023-12-20T11:44:21;5.70;11.70
14769;DHT22;7476;49.404;11.152;2023-12-20T11:46:49;5.70;21.80
14769;DHT22;7476;49.404;11.152;2023-12-20T11:49:16;5.70;4.70
14769;DHT22;7476;49.404;11.152;2023-12-20T11:51:44;5.70;1.00
14769;DHT22;7476;49.404;11.152;2023-12-20T11:54:10;5.70;1.00
14769;DHT22;7476;49.404;11.152;2023-12-20T11:56:37;5.70;1.00
14769;DHT22;7476;49.404;11.152;2023-12-20T11:59:04;5.70;35.30
14769;DHT22;7476;49.404;11.152;2023-12-20T12:01:31;5.80;8.70
14769;DHT22;7476;49.404;11.152;2023-12-20T12:04:08;5.70;14.60
14769;DHT22;7476;49.404;11.152;2023-12-20T12:06:35;5.70;1.00
14769;DHT22;7476;49.404;11.152;2023-12-20T12:09:02;5.60;7.40
14769;DHT22;7476;49.404;11.152;2023-12-20T12:11:30;5.50;28.80
14769;DHT22;7476;49.404;11.152;2023-12-20T12:13:57;5.50;29.80
14769;DHT22;7476;49.404;11.152;2023-12-20T12:16:23;5.50;39.70
14769;DHT22;7476;49.404;11.152;2023-12-20T12:18:57;5.60;9.00
14769;DHT22;7476;49.404;11.152;2023-12-20T12:21:25;5.60;1.00
14769;DHT22;7476;49.404;11.152;2023-12-20T12:23:52;5.60;1.00
14769;DHT22;7476;49.404;11.152;2023-12-20T12:26:18;5.70;1.00
14769;DHT22;7476;49.404;11.152;2023-12-20T12:28:45;5.80;1.00
14769;DHT22;7476;49.404;11.152;2023-12-20T12:31:13;5.90;1.00
14769;DHT22;7476;49.404;11.152;2023-12-20T12:33:41;6.00;1.00
14769;DHT22;7476;49.404;11.152;2023-12-20T12:36:09;6.10;1.00
14769;DHT22;7476;49.404;11.152;2023-12-20T12:38:38;6.10;1.00
14769;DHT22;7476;49.404;11.152;2023-12-20T12:41:04;6.20;1.00
14769;DHT22;7476;49.404;11.152;2023-12-20T12:43:32;6.20;1.00
14769;DHT22;7476;49.404;11.152;2023-12-20T12:45:59;6.20;1.00
14769;DHT22;7476;49.404;11.152;2023-12-20T12:48:27;6.10;1.00
14769;DHT22;7476;49.404;11.152;2023-12-20T12:50:53;6.10;1.00
14769;DHT22;7476;49.404;11.152;2023-12-20T12:53:24;6.10;1.00
14769;DHT22;7476;49.404;11.152;2023-12-20T12:55:52;6.20;1.00
14769;DHT22;7476;49.404;11.152;2023-12-20T12:58:20;6.30;1.00
14769;DHT22;7476;49.404;11.152;2023-12-20T13:00:47;6.20;1.00
14769;DHT22;7476;49.404;11.152;2023-12-20T13:03:14;6.20;1.00
14769;DHT22;7476;49.404;11.152;2023-12-20T13:05:41;6.20;1.00
14769;DHT22;7476;49.404;11.152;2023-12-20T13:08:08;6.20;1.00
14769;DHT22;7476;49.404;11.152;2023-12-20T13:10:37;6.20;1.00
14769;DHT22;7476;49.404;11.152;2023-12-20T13:13:05;6.20;1.00
14769;DHT22;7476;49.404;11.152;2023-12-20T13:15:32;6.30;1.00
14769;DHT22;7476;49.404;11.152;2023-12-20T13:17:58;6.20;1.00
14769;DHT22;7476;49.404;11.152;2023-12-20T13:20:25;6.20;1.00
14769;DHT22;7476;49.404;11.152;2023-12-20T13:22:52;6.10;1.00
14769;DHT22;7476;49.404;11.152;2023-12-20T13:25:18;5.90;1.00
14769;DHT22;7476;49.404;11.152;2023-12-20T13:27:45;5.80;1.00
14769;DHT22;7476;49.404;11.152;2023-12-20T13:30:15;5.70;1.00
14769;DHT22;7476;49.404;11.152;2023-12-20T13:32:42;5.70;1.00
14769;DHT22;7476;49.404;11.152;2023-12-20T13:35:09;5.70;1.00
14769;DHT22;7476;49.404;11.152;2023-12-20T13:37:36;5.80;1.00
14769;DHT22;7476;49.404;11.152;2023-12-20T13:40:03;5.90;1.00
14769;DHT22;7476;49.404;11.152;2023-12-20T13:42:31;6.10;1.00
14769;DHT22;7476;49.404;11.152;2023-12-20T13:44:58;6.10;1.00
14769;DHT22;7476;49.404;11.152;2023-12-20T13:47:26;6.10;1.00
14769;DHT22;7476;49.404;11.152;2023-12-20T13:49:52;6.10;1.00
14769;DHT22;7476;49.404;11.152;2023-12-20T13:52:19;6.10;1.00
14769;DHT22;7476;49.404;11.152;2023-12-20T13:54:46;6.00;1.00
14769;DHT22;7476;49.404;11.152;2023-12-20T13:57:13;5.90;1.00
14769;DHT22;7476;49.404;11.152;2023-12-20T13:59:40;5.80;1.00
14769;DHT22;7476;49.404;11.152;2023-12-20T14:02:06;5.80;1.00
14769;DHT22;7476;49.404;11.152;2023-12-20T14:04:34;5.80;1.00
14769;DHT22;7476;49.404;11.152;2023-12-20T14:07:01;5.80;1.00
14769;DHT22;7476;49.404;11.152;2023-12-20T14:09:28;5.70;1.00
14769;DHT22;7476;49.404;11.152;2023-12-20T14:11:55;5.70;1.00
14769;DHT22;7476;49.404;11.152;2023-12-20T14:14:22;5.80;1.00
14769;DHT22;7476;49.404;11.152;2023-12-20T14:16:48;5.70;1.00
14769;DHT22;7476;49.404;11.152;2023-12-20T14:19:15;5.70;1.00
14769;DHT22;7476;49.404;11.152;2023-12-20T14:21:43;5.70;1.00
14769;DHT22;7476;49.404;11.152;2023-12-20T14:24:11;5.70;1.00
14769;DHT22;7476;49.404;11.152;2023-12-20T14:26:40;5.70;1.00
14769;DHT22;7476;49.404;11.152;2023-12-20T14:29:06;5.60;1.00
14769;DHT22;7476;49.404;11.152;2023-12-20T14:31:34;5.60;1.00
14769;DHT22;7476;49.404;11.152;2023-12-20T14:34:02;5.50;1.00
14769;DHT22;7476;49.404;11.152;2023-12-20T14:36:30;5.40;1.00
14769;DHT22;7476;49.404;11.152;2023-12-20T14:38:58;5.30;1.00
14769;DHT22;7476;49.404;11.152;2023-12-20T14:41:25;5.20;1.00
14769;DHT22;7476;49.404;11.152;2023-12-20T14:43:52;5.20;1.00
14769;DHT22;7476;49.404;11.152;2023-12-20T14:46:18;5.20;1.00
14769;DHT22;7476;49.404;11.152;2023-12-20T14:48:45;5.20;1.00
14769;DHT22;7476;49.404;11.152;2023-12-20T14:51:13;5.20;1.00
14769;DHT22;7476;49.404;11.152;2023-12-20T14:53:40;5.10;1.00
14769;DHT22;7476;49.404;11.152;2023-12-20T14:56:09;5.10;1.00
14769;DHT22;7476;49.404;11.152;2023-12-20T14:58:35;5.10;1.00
14769;DHT22;7476;49.404;11.152;2023-12-20T15:01:02;5.10;1.00
14769;DHT22;7476;49.404;11.152;2023-12-20T15:03:29;5.20;1.00
14769;DHT22;7476;49.404;11.152;2023-12-20T15:05:56;5.20;1.00
14769;DHT22;7476;49.404;11.152;2023-12-20T15:08:24;5.20;1.00
14769;DHT22;7476;49.404;11.152;2023-12-20T15:10:50;5.20;1.00
14769;DHT22;7476;49.404;11.152;2023-12-20T15:13:18;5.20;1.00
14769;DHT22;7476;49.404;11.152;2023-12-20T15:15:45;5.20;1.00
14769;DHT22;7476;49.404;11.152;2023-12-20T15:18:12;5.20;1.00
14769;DHT22;7476;49.404;11.152;2023-12-20T15:20:39;5.20;1.00
14769;DHT22;7476;49.404;11.152;2023-12-20T15:23:09;5.20;1.00
14769;DHT22;7476;49.404;11.152;2023-12-20T15:25:36;5.30;1.00
14769;DHT22;7476;49.404;11.152;2023-12-20T15:28:02;5.20;1.00
14769;DHT22;7476;49.404;11.152;2023-12-20T15:30:30;5.20;1.00
14769;DHT22;7476;49.404;11.152;2023-12-20T15:32:57;5.10;1.00
14769;DHT22;7476;49.404;11.152;2023-12-20T15:35:24;5.10;1.00
14769;DHT22;7476;49.404;11.152;2023-12-20T15:37:50;5.10;1.00
14769;DHT22;7476;49.404;11.152;2023-12-20T15:40:17;5.10;1.00
14769;DHT22;7476;49.404;11.152;2023-12-20T15:42:44;5.10;1.00
14769;DHT22;7476;49.404;11.152;2023-12-20T15:45:11;5.10;1.00
14769;DHT22;7476;49.404;11.152;2023-12-20T15:47:39;5.10;1.00
14769;DHT22;7476;49.404;11.152;2023-12-20T15:50:06;5.20;1.00
14769;DHT22;7476;49.404;11.152;2023-12-20T15:52:33;5.20;1.00